Time;durP1;ratioP1;P1;durP2;ratioP2;P2;SDS_P1;SDS_P2;PMS_P1;PMS_P2;Temp;Humidity;BMP_temperature;BMP_pressure;BME280_temperature;BME280_humidity;BME280_pressure;Samples;Min_cycle;Max_cycle;Signal;HPM_P1;HPM_P2
2024/04/10 00:00:14;;;;;;;0.20;0.20;;;17.20;71.60;;;;;;5335761;26;20026;-77
2024/04/10 00:02:40;;;;;;;0.40;0.40;;;17.20;71.60;;;;;;5333615;26;20012;-78
2024/04/10 00:05:07;;;;;;;0.40;0.40;;;17.20;71.70;;;;;;5335361;26;20001;-77
2024/04/10 00:07:33;;;;;;;0.30;0.25;;;17.20;71.80;;;;;;5329168;26;20009;-77
2024/04/10 00:09:58;;;;;;;0.20;0.20;;;17.20;71.70;;;;;;5334614;26;20019;-78
2024/04/10 00:12:24;;;;;;;0.40;0.20;;;17.20;71.80;;;;;;5329521;26;20005;-78
2024/04/10 00:14:50;;;;;;;1.40;0.30;;;17.20;71.70;;;;;;5332127;26;20075;-77
2024/04/10 00:17:15;;;;;;;0.30;0.30;;;17.20;71.80;;;;;;5335667;26;20005;-77
2024/04/10 00:19:41;;;;;;;0.52;0.40;;;17.20;71.80;;;;;;5363623;26;20449;-77
2024/04/10 00:22:06;;;;;;;0.20;0.20;;;17.20;71.70;;;;;;5335809;26;20001;-77
2024/04/10 00:24:32;;;;;;;0.68;0.38;;;17.20;71.70;;;;;;5329655;26;20016;-77
2024/04/10 00:26:58;;;;;;;0.30;0.25;;;17.20;71.60;;;;;;5330370;26;20012;-77
2024/04/10 00:29:23;;;;;;;0.38;0.30;;;17.20;71.70;;;;;;5361457;26;20009;-77
2024/04/10 00:31:52;;;;;;;0.80;0.20;;;17.10;71.50;;;;;;5339949;26;20019;-77
2024/04/10 00:34:18;;;;;;;0.25;0.25;;;17.10;71.60;;;;;;5335410;26;20048;-78
2024/04/10 00:36:43;;;;;;;0.30;0.30;;;17.10;71.60;;;;;;5333804;26;20431;-78
2024/04/10 00:39:09;;;;;;;0.30;0.30;;;17.10;71.60;;;;;;5332090;26;20020;-79
2024/04/10 00:41:35;;;;;;;0.35;0.30;;;17.10;71.50;;;;;;5336672;26;20021;-78
2024/04/10 00:44:01;;;;;;;0.68;0.30;;;17.10;71.50;;;;;;5331319;26;20005;-78
2024/04/10 00:46:27;;;;;;;0.20;0.20;;;17.10;71.60;;;;;;5334393;26;20327;-78
2024/04/10 00:48:52;;;;;;;0.28;0.28;;;17.10;71.50;;;;;;5327234;26;20479;-78
2024/04/10 00:51:24;;;;;;;0.13;0.13;;;17.10;71.50;;;;;;5336026;26;20144;-78
2024/04/10 00:53:50;;;;;;;0.20;0.20;;;17.10;71.50;;;;;;5336660;26;20079;-78
2024/04/10 00:56:16;;;;;;;0.40;0.30;;;17.10;71.50;;;;;;5330571;26;20009;-78
2024/04/10 00:58:42;;;;;;;0.77;0.38;;;17.10;71.50;;;;;;5364971;26;20443;-78
2024/04/10 01:01:09;;;;;;;0.20;0.20;;;17.10;71.50;;;;;;5335055;26;20425;-78
2024/04/10 01:03:36;;;;;;;0.38;0.38;;;17.10;71.60;;;;;;5362952;26;20016;-78
2024/04/10 01:06:03;;;;;;;1.38;0.20;;;17.10;72.30;;;;;;5334706;26;20444;-78
2024/04/10 01:08:29;;;;;;;0.43;0.40;;;17.10;71.50;;;;;;5337536;26;20005;-78
2024/04/10 01:10:55;;;;;;;0.45;0.30;;;17.10;71.50;;;;;;5309341;26;20019;-78
2024/04/10 01:13:21;;;;;;;0.57;0.30;;;17.10;71.60;;;;;;5329618;26;20346;-78
2024/04/10 01:15:46;;;;;;;0.25;0.25;;;17.10;71.60;;;;;;5339942;26;20001;-78
2024/04/10 01:18:12;;;;;;;0.30;0.25;;;17.10;71.60;;;;;;5332005;26;20017;-78
2024/04/10 01:20:38;;;;;;;0.68;0.40;;;17.10;71.50;;;;;;5354711;26;20016;-78
2024/04/10 01:23:04;;;;;;;0.50;0.40;;;17.10;71.50;;;;;;5306778;26;20403;-78
2024/04/10 01:25:30;;;;;;;0.40;0.30;;;17.10;71.50;;;;;;5336538;26;20012;-78
2024/04/10 01:27:56;;;;;;;0.55;0.30;;;17.10;71.50;;;;;;5349896;26;20451;-78
2024/04/10 01:30:21;;;;;;;0.77;0.20;;;17.00;71.40;;;;;;5313066;26;20413;-78
2024/04/10 01:32:47;;;;;;;0.20;0.20;;;17.10;71.50;;;;;;5302537;26;20013;-78
2024/04/10 01:35:12;;;;;;;0.40;0.10;;;17.10;71.50;;;;;;5362163;26;20000;-77
2024/04/10 01:37:38;;;;;;;0.30;0.30;;;17.00;71.40;;;;;;5336045;26;20009;-78
2024/04/10 01:40:04;;;;;;;0.40;0.15;;;17.10;71.40;;;;;;5337128;26;20041;-78
2024/04/10 01:42:30;;;;;;;0.30;0.22;;;17.10;71.50;;;;;;5334119;26;20478;-78
2024/04/10 01:44:55;;;;;;;0.30;0.20;;;17.10;71.60;;;;;;5334992;26;19997;-78
2024/04/10 01:47:21;;;;;;;0.40;0.20;;;17.10;71.40;;;;;;5358213;26;20584;-78
2024/04/10 01:49:47;;;;;;;0.30;0.17;;;17.10;71.50;;;;;;5335475;26;20331;-78
2024/04/10 01:52:12;;;;;;;0.55;0.28;;;17.00;71.50;;;;;;5308900;26;20046;-78
2024/04/10 01:54:38;;;;;;;0.17;0.10;;;17.00;71.40;;;;;;5309169;26;20024;-78
2024/04/10 01:57:03;;;;;;;0.20;0.20;;;17.00;71.30;;;;;;5330802;26;20454;-78
2024/04/10 01:59:29;;;;;;;0.30;0.17;;;17.00;71.40;;;;;;5328879;26;20006;-78
2024/04/10 02:01:55;;;;;;;0.28;0.28;;;17.00;71.40;;;;;;5332592;26;20005;-78
2024/04/10 02:04:20;;;;;;;0.30;0.30;;;17.00;71.40;;;;;;5334051;26;20037;-78
2024/04/10 02:06:46;;;;;;;0.35;0.25;;;17.00;71.40;;;;;;5367005;26;20009;-78
2024/04/10 02:09:11;;;;;;;0.55;0.30;;;17.00;71.40;;;;;;5338514;26;20009;-78
2024/04/10 02:11:38;;;;;;;0.20;0.20;;;17.00;71.40;;;;;;5338009;26;20021;-78
2024/04/10 02:14:07;;;;;;;0.43;0.40;;;17.00;71.70;;;;;;5331851;26;20011;-78
2024/04/10 02:16:32;;;;;;;0.57;0.30;;;17.00;71.50;;;;;;5332770;26;20090;-78
2024/04/10 02:18:58;;;;;;;0.60;0.28;;;17.00;71.60;;;;;;5340268;26;20029;-78
2024/04/10 02:21:24;;;;;;;0.43;0.43;;;17.00;71.60;;;;;;5328054;26;20166;-77
2024/04/10 02:23:50;;;;;;;0.50;0.30;;;17.00;71.60;;;;;;5332555;26;19997;-77
2024/04/10 02:26:17;;;;;;;0.28;0.28;;;17.00;71.70;;;;;;5303982;26;20033;-78
2024/04/10 02:28:42;;;;;;;0.35;0.17;;;17.00;72.40;;;;;;5336693;26;20028;-78
2024/04/10 02:31:08;;;;;;;0.20;0.20;;;16.90;71.60;;;;;;5315351;26;20013;-78
2024/04/10 02:33:36;;;;;;;0.40;0.20;;;17.00;71.60;;;;;;5330332;26;20524;-78
2024/04/10 02:36:03;;;;;;;0.30;0.15;;;17.00;71.70;;;;;;5307543;26;20326;-79
2024/04/10 02:38:28;;;;;;;0.20;0.20;;;17.00;71.70;;;;;;5306351;26;20005;-78
2024/04/10 02:40:54;;;;;;;1.00;0.20;;;16.90;71.70;;;;;;5334740;26;19997;-78
2024/04/10 02:43:20;;;;;;;0.35;0.30;;;17.00;71.80;;;;;;5326831;26;20006;-78
2024/04/10 02:45:59;;;;;;;0.52;0.40;;;17.00;71.70;;;;;;5311221;26;21291;-78
2024/04/10 02:48:25;;;;;;;0.40;0.15;;;16.90;71.70;;;;;;5303904;26;20005;-78
2024/04/10 02:50:51;;;;;;;0.30;0.30;;;16.90;71.70;;;;;;5306219;26;20015;-78
2024/04/10 02:53:17;;;;;;;0.20;0.20;;;16.90;71.50;;;;;;5334573;26;20031;-78
2024/04/10 02:55:45;;;;;;;0.65;0.22;;;16.90;71.60;;;;;;5304144;26;20044;-78
2024/04/10 02:58:11;;;;;;;0.40;0.20;;;16.90;71.60;;;;;;5275702;26;20017;-78
2024/04/10 03:00:55;;;;;;;0.32;0.30;;;16.90;71.60;;;;;;5336443;26;20005;-78
2024/04/10 03:03:21;;;;;;;0.20;0.20;;;16.90;71.80;;;;;;5328633;26;20076;-78
2024/04/10 03:05:58;;;;;;;0.28;0.20;;;16.90;71.80;;;;;;5358319;26;20020;-78
2024/04/10 03:08:23;;;;;;;0.30;0.20;;;16.90;71.70;;;;;;5336255;26;20013;-77
2024/04/10 03:10:49;;;;;;;0.47;0.40;;;16.90;71.60;;;;;;5308797;26;20052;-77
2024/04/10 03:13:15;;;;;;;0.60;0.52;;;16.90;71.60;;;;;;5330846;26;20015;-77
2024/04/10 03:15:41;;;;;;;0.38;0.28;;;16.90;71.60;;;;;;5327458;26;20360;-77
2024/04/10 03:18:07;;;;;;;0.38;0.20;;;16.90;71.70;;;;;;5307637;26;20053;-77
2024/04/10 03:20:33;;;;;;;0.35;0.30;;;16.90;71.60;;;;;;5305125;26;20005;-78
2024/04/10 03:22:59;;;;;;;0.60;0.50;;;16.90;71.60;;;;;;5335559;26;20061;-78
2024/04/10 03:25:25;;;;;;;0.40;0.30;;;16.90;71.60;;;;;;5336001;26;20012;-78
2024/04/10 03:27:51;;;;;;;0.40;0.40;;;16.90;71.60;;;;;;5337653;26;20016;-78
2024/04/10 03:30:16;;;;;;;0.20;0.20;;;16.90;71.60;;;;;;5336792;26;22386;-78
2024/04/10 03:32:42;;;;;;;0.38;0.38;;;16.90;71.60;;;;;;5305917;26;20033;-78
2024/04/10 03:35:08;;;;;;;0.30;0.20;;;16.80;71.70;;;;;;5336678;26;19997;-78
2024/04/10 03:37:33;;;;;;;0.85;0.40;;;16.90;71.60;;;;;;5335677;26;20402;-78
2024/04/10 03:40:00;;;;;;;0.30;0.20;;;16.90;71.60;;;;;;5355677;26;20005;-77
2024/04/10 03:42:25;;;;;;;0.30;0.30;;;16.80;71.70;;;;;;5336852;26;20001;-77
2024/04/10 03:44:51;;;;;;;0.50;0.32;;;16.80;71.70;;;;;;5333702;26;20360;-78
2024/04/10 03:47:17;;;;;;;0.20;0.20;;;16.90;71.70;;;;;;5336676;26;20037;-78
2024/04/10 03:49:43;;;;;;;0.20;0.20;;;16.90;71.70;;;;;;5307160;26;20033;-78
2024/04/10 03:52:09;;;;;;;0.60;0.30;;;16.90;71.70;;;;;;5304059;26;20009;-78
2024/04/10 03:54:34;;;;;;;0.20;0.10;;;16.90;71.70;;;;;;5327295;26;20083;-78
2024/04/10 03:57:00;;;;;;;0.30;0.30;;;16.90;71.80;;;;;;5335451;26;20001;-77
2024/04/10 03:59:26;;;;;;;0.47;0.30;;;16.80;71.80;;;;;;5336869;26;20439;-77
2024/04/10 04:01:52;;;;;;;0.93;0.25;;;16.90;71.80;;;;;;5334810;26;20011;-78
2024/04/10 04:04:18;;;;;;;0.40;0.25;;;16.90;71.80;;;;;;5333981;26;20353;-78
2024/04/10 04:06:44;;;;;;;0.20;0.20;;;16.80;71.80;;;;;;5333663;26;20004;-77
2024/04/10 04:09:10;;;;;;;0.30;0.22;;;16.90;71.90;;;;;;5367852;26;20327;-78
2024/04/10 04:11:37;;;;;;;0.68;0.43;;;16.90;71.90;;;;;;5331448;26;20035;-77
2024/04/10 04:14:03;;;;;;;0.28;0.20;;;16.90;71.90;;;;;;5333937;26;19997;-78
2024/04/10 04:16:30;;;;;;;0.15;0.15;;;16.80;71.80;;;;;;5307578;26;20056;-78
2024/04/10 04:18:55;;;;;;;0.40;0.20;;;16.80;72.20;;;;;;5307439;26;20491;-79
2024/04/10 04:21:22;;;;;;;0.28;0.28;;;16.80;72.60;;;;;;5301959;26;20017;-78
2024/04/10 04:23:48;;;;;;;0.50;0.20;;;16.90;73.10;;;;;;5363348;26;20015;-79
2024/04/10 04:26:13;;;;;;;0.20;0.20;;;16.90;73.40;;;;;;5309158;26;19996;-78
2024/04/10 04:28:39;;;;;;;0.20;0.20;;;16.90;74.60;;;;;;5327401;26;20009;-79
2024/04/10 04:31:04;;;;;;;0.30;0.20;;;16.90;75.10;;;;;;5329484;26;20455;-78
2024/04/10 04:33:30;;;;;;;0.35;0.30;;;16.90;75.70;;;;;;5331638;26;20006;-78
2024/04/10 04:35:56;;;;;;;0.30;0.28;;;16.90;76.50;;;;;;5331758;26;20016;-78
2024/04/10 04:38:21;;;;;;;0.20;0.20;;;17.00;76.70;;;;;;5330775;26;20017;-78
2024/04/10 04:40:47;;;;;;;0.43;0.40;;;16.90;77.50;;;;;;5326179;26;20009;-78
2024/04/10 04:43:12;;;;;;;0.55;0.30;;;16.90;78.20;;;;;;5337052;26;20016;-78
2024/04/10 04:45:38;;;;;;;0.25;0.17;;;16.90;78.80;;;;;;5321511;26;20005;-78
2024/04/10 04:48:08;;;;;;;0.22;0.20;;;16.90;79.70;;;;;;5324337;26;20015;-78
2024/04/10 04:50:34;;;;;;;0.60;0.40;;;16.90;80.30;;;;;;5331303;26;20462;-78
2024/04/10 04:52:59;;;;;;;0.57;0.20;;;16.90;80.90;;;;;;5333047;26;20017;-78
2024/04/10 04:55:25;;;;;;;0.20;0.20;;;16.90;81.40;;;;;;5295733;26;20401;-78
2024/04/10 04:57:51;;;;;;;0.63;0.30;;;16.90;81.50;;;;;;5316379;26;19997;-78
2024/04/10 05:00:19;;;;;;;0.20;0.10;;;16.90;81.50;;;;;;5305920;26;20079;-79
2024/04/10 05:02:45;;;;;;;0.88;0.13;;;16.90;76.80;;;;;;5325829;26;20028;-79
2024/04/10 05:05:15;;;;;;;0.43;0.30;;;16.90;77.40;;;;;;5305073;26;20079;-78
2024/04/10 05:07:41;;;;;;;0.22;0.15;;;16.90;77.10;;;;;;5306222;26;20009;-78
2024/04/10 05:10:08;;;;;;;0.40;0.30;;;16.90;78.60;;;;;;5308320;26;19997;-78
2024/04/10 05:12:34;;;;;;;0.65;0.40;;;16.80;76.80;;;;;;5330683;26;20459;-78
2024/04/10 05:15:00;;;;;;;0.20;0.20;;;16.90;78.00;;;;;;5299843;26;20005;-78
2024/04/10 05:17:26;;;;;;;0.40;0.30;;;16.90;77.50;;;;;;5334446;26;20366;-78
2024/04/10 05:19:51;;;;;;;0.47;0.30;;;16.90;77.90;;;;;;5336584;26;20011;-78
2024/04/10 05:22:17;;;;;;;0.17;0.17;;;16.80;78.90;;;;;;5338886;26;20013;-78
2024/04/10 05:24:43;;;;;;;0.30;0.17;;;16.80;78.80;;;;;;5336103;26;20088;-78
2024/04/10 05:27:09;;;;;;;0.20;0.20;;;16.90;78.60;;;;;;5336483;26;20005;-78
2024/04/10 05:29:35;;;;;;;0.45;0.22;;;16.90;73.60;;;;;;5332442;26;20044;-78
2024/04/10 05:32:01;;;;;;;0.30;0.30;;;16.80;73.60;;;;;;5332544;26;20468;-78
2024/04/10 05:34:26;;;;;;;0.20;0.20;;;16.90;75.10;;;;;;5307233;26;20090;-78
2024/04/10 05:36:52;;;;;;;0.40;0.20;;;16.90;75.20;;;;;;5331138;26;20012;-78
2024/04/10 05:39:19;;;;;;;0.45;0.32;;;16.90;75.30;;;;;;5338464;26;20004;-78
2024/04/10 05:41:48;;;;;;;0.30;0.30;;;16.90;75.30;;;;;;5336561;26;20013;-78
2024/04/10 05:44:13;;;;;;;0.40;0.10;;;16.80;75.00;;;;;;5301012;26;20017;-78
2024/04/10 05:46:39;;;;;;;0.40;0.20;;;16.80;75.70;;;;;;5334754;26;20013;-78
2024/04/10 05:49:09;;;;;;;0.25;0.20;;;16.80;76.00;;;;;;5341243;26;20353;-77
2024/04/10 05:51:35;;;;;;;1.00;0.30;;;16.80;76.50;;;;;;5336960;26;20087;-78
2024/04/10 05:54:00;;;;;;;0.28;0.20;;;16.90;76.50;;;;;;5306991;26;19996;-78
2024/04/10 05:56:26;;;;;;;0.45;0.40;;;16.80;76.70;;;;;;4934361;26;10000560;-78
2024/04/10 05:58:52;;;;;;;0.35;0.30;;;16.90;77.30;;;;;;5332635;26;20087;-79
2024/04/10 06:01:17;;;;;;;0.30;0.30;;;16.90;78.20;;;;;;5325273;26;20001;-79
2024/04/10 06:03:46;;;;;;;0.20;0.20;;;16.80;77.10;;;;;;5328920;26;20017;-79
2024/04/10 06:06:15;;;;;;;0.38;0.20;;;16.90;76.20;;;;;;5323834;26;20018;-79
2024/04/10 06:08:42;;;;;;;0.30;0.20;;;16.90;75.80;;;;;;5330621;26;20005;-79
2024/04/10 06:11:08;;;;;;;0.63;0.40;;;16.90;76.20;;;;;;5332332;26;20005;-79
2024/04/10 06:13:33;;;;;;;0.35;0.32;;;16.90;76.50;;;;;;5326060;26;20005;-79
2024/04/10 06:16:03;;;;;;;0.35;0.30;;;17.00;76.80;;;;;;5303350;26;20033;-78
2024/04/10 06:18:28;;;;;;;1.33;0.32;;;17.00;77.40;;;;;;5332058;26;20375;-78
2024/04/10 06:21:00;;;;;;;0.38;0.38;;;17.00;76.30;;;;;;5302539;26;20550;-79
2024/04/10 06:23:30;;;;;;;0.95;0.30;;;16.90;76.10;;;;;;5330536;26;20413;-78
2024/04/10 06:25:56;;;;;;;0.50;0.50;;;17.00;76.30;;;;;;5330283;26;20045;-78
2024/04/10 06:28:24;;;;;;;0.40;0.40;;;17.00;76.40;;;;;;5331742;26;20373;-78
2024/04/10 06:31:06;;;;;;;0.57;0.45;;;17.00;75.90;;;;;;5327877;26;20027;-79
2024/04/10 06:33:32;;;;;;;0.65;0.20;;;17.00;76.90;;;;;;5330881;26;20041;-78
2024/04/10 06:36:04;;;;;;;0.85;0.40;;;16.90;75.60;;;;;;5319726;26;20002;-79
2024/04/10 06:38:32;;;;;;;0.30;0.20;;;17.00;76.30;;;;;;5330313;26;20012;-78
2024/04/10 06:40:59;;;;;;;1.75;0.30;;;17.00;76.70;;;;;;5325840;26;20006;-79
2024/04/10 06:43:26;;;;;;;0.88;0.40;;;17.00;77.20;;;;;;5308325;26;20005;-79
2024/04/10 06:45:58;;;;;;;0.40;0.20;;;17.00;76.40;;;;;;5336294;26;20029;-79
2024/04/10 06:48:24;;;;;;;0.60;0.50;;;17.00;76.20;;;;;;5312296;26;20075;-79
2024/04/10 06:50:51;;;;;;;0.40;0.40;;;16.90;76.90;;;;;;5360881;26;20021;-79
2024/04/10 06:53:17;;;;;;;0.52;0.35;;;16.90;76.50;;;;;;5333799;26;20005;-79
2024/04/10 06:55:57;;;;;;;0.73;0.30;;;16.90;76.10;;;;;;5335820;26;20023;-79
2024/04/10 06:58:24;;;;;;;0.50;0.40;;;16.90;75.80;;;;;;5303434;26;20041;-79
2024/04/10 07:00:59;;;;;;;0.47;0.30;;;17.00;77.00;;;;;;5336252;26;20074;-79
2024/04/10 07:03:28;;;;;;;0.40;0.40;;;16.90;76.40;;;;;;5298891;26;20041;-79
2024/04/10 07:06:16;;;;;;;0.50;0.20;;;16.90;76.50;;;;;;5324057;26;20017;-78
2024/04/10 07:08:42;;;;;;;0.50;0.20;;;16.90;76.80;;;;;;5302767;26;20024;-79
2024/04/10 07:11:09;;;;;;;0.40;0.22;;;16.90;76.40;;;;;;5306251;26;20028;-79
2024/04/10 07:13:38;;;;;;;0.35;0.25;;;16.90;76.40;;;;;;5279371;26;20013;-79
2024/04/10 07:16:04;;;;;;;0.30;0.22;;;16.90;76.90;;;;;;5331994;26;20015;-78
2024/04/10 07:18:30;;;;;;;0.30;0.20;;;16.90;77.00;;;;;;5359531;26;20006;-79
2024/04/10 07:21:08;;;;;;;0.43;0.20;;;16.90;77.20;;;;;;5336585;26;20023;-79
2024/04/10 07:23:38;;;;;;;0.52;0.30;;;16.90;78.40;;;;;;5332097;26;20476;-79
2024/04/10 07:26:07;;;;;;;0.50;0.20;;;16.90;76.50;;;;;;5336671;26;20020;-79
2024/04/10 07:28:33;;;;;;;0.55;0.30;;;17.00;77.10;;;;;;5337727;26;20052;-79
2024/04/10 07:30:59;;;;;;;0.40;0.40;;;17.00;76.80;;;;;;5329763;26;20021;-79
2024/04/10 07:33:24;;;;;;;0.88;0.43;;;16.90;77.30;;;;;;5329436;26;20005;-79
2024/04/10 07:35:50;;;;;;;0.52;0.30;;;16.90;78.10;;;;;;5335882;26;20025;-79
2024/04/10 07:38:16;;;;;;;0.40;0.20;;;16.90;78.60;;;;;;5309647;26;20000;-79
2024/04/10 07:40:54;;;;;;;0.55;0.55;;;17.00;78.00;;;;;;5297608;26;20010;-79
2024/04/10 07:43:20;;;;;;;0.68;0.38;;;17.00;77.60;;;;;;5281067;26;20440;-79
2024/04/10 07:45:46;;;;;;;0.93;0.30;;;17.00;77.70;;;;;;5337724;26;20005;-78
2024/04/10 07:48:11;;;;;;;0.43;0.30;;;17.00;77.50;;;;;;5334470;26;20001;-79
2024/04/10 07:50:37;;;;;;;0.40;0.20;;;17.00;77.70;;;;;;5331809;26;20020;-79
2024/04/10 07:53:03;;;;;;;0.57;0.30;;;17.00;77.40;;;;;;5337573;26;20023;-79
2024/04/10 07:55:29;;;;;;;0.38;0.38;;;17.00;77.80;;;;;;5337630;26;20005;-79
2024/04/10 07:57:54;;;;;;;0.43;0.30;;;17.00;78.10;;;;;;5332011;26;20510;-79
2024/04/10 08:01:52;;;;;;;0.88;0.52;;;17.00;78.00;;;;;;5530077;25;20346;-80
2024/04/10 08:04:18;;;;;;;0.55;0.30;;;17.00;77.40;;;;;;5500628;25;20071;-80
2024/04/10 08:06:43;;;;;;;0.75;0.40;;;17.00;78.00;;;;;;5511036;25;20082;-80
2024/04/10 08:09:09;;;;;;;0.40;0.30;;;17.00;77.40;;;;;;5474418;26;20335;-80
2024/04/10 08:11:34;;;;;;;0.40;0.30;;;17.00;77.20;;;;;;5502295;25;20037;-80
2024/04/10 08:14:01;;;;;;;0.30;0.20;;;17.00;77.40;;;;;;5500763;25;20005;-80
2024/04/10 08:16:26;;;;;;;0.38;0.20;;;17.00;77.20;;;;;;5500007;25;19998;-80
2024/04/10 08:18:52;;;;;;;0.80;0.43;;;17.10;77.20;;;;;;5502398;25;20066;-80
2024/04/10 08:21:18;;;;;;;0.25;0.20;;;17.00;77.30;;;;;;5509654;25;20026;-80
2024/04/10 08:23:45;;;;;;;0.38;0.38;;;17.00;77.30;;;;;;5472152;25;20443;-80
2024/04/10 08:26:11;;;;;;;0.30;0.20;;;17.00;77.10;;;;;;5519185;25;19998;-80
2024/04/10 08:28:45;;;;;;;0.20;0.20;;;17.00;77.10;;;;;;5500044;25;20005;-79
2024/04/10 08:31:12;;;;;;;0.63;0.20;;;17.00;77.30;;;;;;5499604;25;20013;-80
2024/04/10 08:33:39;;;;;;;0.40;0.20;;;17.10;77.50;;;;;;5493774;25;20002;-79
2024/04/10 08:36:06;;;;;;;0.40;0.30;;;17.00;76.90;;;;;;5505517;25;20001;-80
2024/04/10 08:38:32;;;;;;;0.50;0.38;;;17.00;76.70;;;;;;5494722;25;20482;-80
2024/04/10 08:40:58;;;;;;;0.28;0.25;;;17.00;76.70;;;;;;5493989;25;19999;-80
2024/04/10 08:43:25;;;;;;;0.70;0.30;;;17.00;76.30;;;;;;5503526;25;19998;-79
2024/04/10 08:45:51;;;;;;;0.43;0.32;;;17.00;76.60;;;;;;5502946;25;20002;-79
2024/04/10 08:48:17;;;;;;;0.50;0.40;;;17.00;76.80;;;;;;5492322;25;20005;-79
2024/04/10 08:50:42;;;;;;;0.35;0.35;;;17.00;77.00;;;;;;5501700;25;20012;-79
2024/04/10 08:53:10;;;;;;;0.45;0.35;;;17.00;77.10;;;;;;5496680;25;19994;-79
2024/04/10 08:55:35;;;;;;;0.50;0.50;;;17.00;76.90;;;;;;5494608;25;20006;-79
2024/04/10 08:58:01;;;;;;;0.50;0.40;;;17.00;76.60;;;;;;5470232;26;20001;-79
2024/04/10 09:00:27;;;;;;;0.40;0.30;;;17.00;76.50;;;;;;5441131;26;19994;-79
2024/04/10 09:02:52;;;;;;;0.38;0.28;;;17.10;76.50;;;;;;5500466;25;20451;-79
2024/04/10 09:05:29;;;;;;;0.43;0.20;;;17.10;76.30;;;;;;5502401;25;20013;-80
2024/04/10 09:08:01;;;;;;;0.43;0.30;;;17.10;76.20;;;;;;5502778;25;20002;-80
2024/04/10 09:10:26;;;;;;;0.13;0.13;;;17.10;75.90;;;;;;5462141;26;19991;-80
2024/04/10 09:13:05;;;;;;;0.77;0.40;;;17.20;76.20;;;;;;5486475;25;20046;-79
2024/04/10 09:15:32;;;;;;;0.55;0.20;;;17.20;76.00;;;;;;5485341;26;20070;-79
2024/04/10 09:17:58;;;;;;;1.23;0.30;;;17.20;76.00;;;;;;5482092;25;20021;-79
2024/04/10 09:20:23;;;;;;;0.32;0.30;;;17.20;76.30;;;;;;5483865;26;20083;-80
2024/04/10 09:23:04;;;;;;;0.20;0.20;;;17.30;76.00;;;;;;5482903;26;20057;-80
2024/04/10 09:25:33;;;;;;;0.85;0.30;;;17.30;76.50;;;;;;5483958;26;19994;-79
2024/04/10 09:28:03;;;;;;;0.50;0.30;;;17.30;75.80;;;;;;5488865;26;20013;-79
2024/04/10 09:30:30;;;;;;;0.30;0.20;;;17.30;76.00;;;;;;5481793;26;20315;-80
2024/04/10 09:32:56;;;;;;;0.38;0.20;;;17.40;75.80;;;;;;5479202;26;20018;-80
2024/04/10 09:35:24;;;;;;;0.30;0.30;;;17.30;76.00;;;;;;5494300;25;20002;-80
2024/04/10 09:37:49;;;;;;;0.30;0.30;;;17.40;75.70;;;;;;5477768;26;19999;-79
2024/04/10 09:40:17;;;;;;;0.30;0.30;;;17.40;75.40;;;;;;5485990;26;20089;-80
2024/04/10 09:42:45;;;;;;;0.82;0.45;;;17.40;75.30;;;;;;5457559;26;20066;-79
2024/04/10 09:45:17;;;;;;;0.28;0.20;;;17.50;75.40;;;;;;5482898;26;20016;-79
2024/04/10 09:47:43;;;;;;;0.63;0.35;;;17.50;75.10;;;;;;5483594;26;20003;-79
2024/04/10 09:50:10;;;;;;;1.00;0.40;;;17.40;74.80;;;;;;5475373;26;20013;-79
2024/04/10 09:52:35;;;;;;;0.25;0.25;;;17.50;74.80;;;;;;5483079;26;20010;-80
2024/04/10 09:55:01;;;;;;;0.57;0.45;;;17.50;74.80;;;;;;5486502;25;20033;-80
2024/04/10 09:57:27;;;;;;;0.77;0.40;;;17.50;74.60;;;;;;5481526;26;20451;-79
2024/04/10 09:59:53;;;;;;;0.40;0.20;;;17.60;74.20;;;;;;5481049;26;20005;-79
2024/04/10 10:02:19;;;;;;;0.40;0.30;;;17.60;74.50;;;;;;5453733;26;20005;-79
2024/04/10 10:04:45;;;;;;;0.57;0.38;;;17.60;74.20;;;;;;5477438;26;19995;-80
2024/04/10 10:07:19;;;;;;;0.55;0.20;;;17.60;74.40;;;;;;5488381;26;20585;-79
2024/04/10 10:09:44;;;;;;;0.35;0.30;;;17.60;74.80;;;;;;5478163;26;19994;-79
2024/04/10 10:12:10;;;;;;;0.30;0.20;;;17.60;74.30;;;;;;5481663;26;20026;-80
2024/04/10 10:14:36;;;;;;;0.63;0.30;;;17.60;74.40;;;;;;5486395;25;20001;-80
2024/04/10 10:17:08;;;;;;;0.20;0.17;;;17.70;74.60;;;;;;5481445;26;20360;-79
2024/04/10 10:19:37;;;;;;;0.30;0.30;;;17.70;74.30;;;;;;5482965;26;20030;-79
2024/04/10 10:22:03;;;;;;;0.57;0.30;;;17.70;74.10;;;;;;5492634;26;20066;-80
2024/04/10 10:24:29;;;;;;;0.20;0.20;;;17.70;74.00;;;;;;5477694;26;20031;-79
2024/04/10 10:27:01;;;;;;;0.20;0.20;;;17.70;74.00;;;;;;5455016;26;19994;-80
2024/04/10 10:29:31;;;;;;;0.60;0.20;;;17.70;73.70;;;;;;5485272;26;20013;-79
2024/04/10 10:32:09;;;;;;;0.47;0.30;;;17.70;73.70;;;;;;5477591;25;20356;-79
2024/04/10 10:34:34;;;;;;;0.43;0.40;;;17.70;73.40;;;;;;5477392;26;20009;-80
2024/04/10 10:37:06;;;;;;;0.38;0.38;;;17.70;73.30;;;;;;5486727;26;20363;-79
2024/04/10 10:39:40;;;;;;;0.10;0.10;;;17.70;73.80;;;;;;5482540;26;20837;-79
2024/04/10 10:42:06;;;;;;;0.60;0.40;;;17.70;73.80;;;;;;5476371;26;20006;-79
2024/04/10 10:44:32;;;;;;;0.35;0.35;;;17.70;73.90;;;;;;5471571;26;20010;-80
2024/04/10 10:46:58;;;;;;;0.63;0.22;;;17.70;73.80;;;;;;5448422;26;20013;-79
2024/04/10 10:49:26;;;;;;;0.10;0.10;;;17.80;73.60;;;;;;5478151;26;20017;-80
2024/04/10 10:51:55;;;;;;;0.52;0.30;;;17.80;73.70;;;;;;5479135;26;20792;-80
2024/04/10 10:54:21;;;;;;;0.60;0.32;;;17.80;73.50;;;;;;5478177;26;20038;-80
2024/04/10 10:56:47;;;;;;;1.27;0.30;;;17.80;73.90;;;;;;5476627;25;20065;-79
2024/04/10 10:59:14;;;;;;;0.60;0.20;;;17.80;74.00;;;;;;5475250;26;19994;-79
2024/04/10 11:01:40;;;;;;;0.40;0.28;;;17.80;73.70;;;;;;5478150;26;20040;-79
2024/04/10 11:04:15;;;;;;;0.40;0.40;;;17.80;73.80;;;;;;5485940;25;19997;-78
2024/04/10 11:06:41;;;;;;;0.88;0.30;;;17.80;74.00;;;;;;5087348;25;9999757;-78
2024/04/10 11:09:09;;;;;;;0.70;0.57;;;17.80;74.20;;;;;;5476962;26;20518;-77
2024/04/10 11:11:38;;;;;;;0.30;0.10;;;17.80;73.60;;;;;;5471010;26;20362;-77
2024/04/10 11:14:04;;;;;;;2.05;0.40;;;17.80;74.20;;;;;;5475044;25;20157;-77
2024/04/10 11:16:33;;;;;;;0.68;0.30;;;17.80;74.40;;;;;;5473389;26;20026;-78
2024/04/10 11:19:00;;;;;;;2.15;0.20;;;17.80;74.00;;;;;;5472674;26;19990;-78
2024/04/10 11:21:26;;;;;;;0.63;0.35;;;17.80;73.70;;;;;;5476820;26;20441;-78
2024/04/10 11:23:52;;;;;;;0.32;0.20;;;17.80;74.10;;;;;;5475547;26;20006;-78
2024/04/10 11:26:17;;;;;;;0.13;0.13;;;17.80;74.00;;;;;;5469678;26;20010;-78
2024/04/10 11:28:44;;;;;;;0.30;0.20;;;17.80;74.10;;;;;;5477056;26;20013;-77
2024/04/10 11:31:10;;;;;;;0.28;0.28;;;17.80;74.00;;;;;;5475742;26;20016;-78
2024/04/10 11:33:36;;;;;;;0.30;0.30;;;17.80;74.00;;;;;;5442590;26;20005;-78
2024/04/10 11:36:02;;;;;;;0.28;0.20;;;17.80;74.50;;;;;;5442579;26;20046;-79
2024/04/10 11:38:29;;;;;;;0.57;0.28;;;17.80;74.20;;;;;;5447332;26;19998;-79
2024/04/10 11:40:54;;;;;;;0.10;0.10;;;17.80;74.40;;;;;;5478761;26;19998;-79
2024/04/10 11:43:20;;;;;;;1.00;0.20;;;17.80;73.60;;;;;;5447554;26;20026;-79
2024/04/10 11:45:46;;;;;;;0.90;0.35;;;17.80;73.80;;;;;;5445996;26;20017;-78
2024/04/10 11:48:12;;;;;;;0.82;0.20;;;17.80;73.70;;;;;;5476839;26;20332;-79
2024/04/10 11:50:37;;;;;;;0.50;0.30;;;17.80;73.90;;;;;;5451651;26;20016;-79
2024/04/10 11:53:03;;;;;;;0.38;0.38;;;17.80;73.90;;;;;;5474745;26;20017;-79
2024/04/10 11:55:29;;;;;;;0.85;0.20;;;17.70;73.80;;;;;;5476474;26;20002;-79
2024/04/10 11:57:55;;;;;;;0.40;0.30;;;17.80;74.00;;;;;;5477900;25;20126;-78
2024/04/10 12:00:21;;;;;;;0.68;0.40;;;17.80;73.60;;;;;;5448191;26;20482;-78
2024/04/10 12:02:46;;;;;;;0.63;0.22;;;17.80;74.00;;;;;;5071229;26;9999662;-78
2024/04/10 12:05:12;;;;;;;0.32;0.20;;;17.80;73.90;;;;;;5440488;26;20111;-79
2024/04/10 12:07:38;;;;;;;0.60;0.30;;;17.80;74.00;;;;;;5469861;26;19999;-78
2024/04/10 12:10:04;;;;;;;0.50;0.28;;;17.80;73.90;;;;;;5482578;26;19994;-78
2024/04/10 12:12:30;;;;;;;0.60;0.40;;;17.90;73.80;;;;;;5473304;26;20163;-78
2024/04/10 12:14:56;;;;;;;0.20;0.20;;;17.90;73.60;;;;;;5475045;26;20006;-77
2024/04/10 12:17:22;;;;;;;0.40;0.25;;;17.90;73.70;;;;;;5470899;26;20337;-77
2024/04/10 12:19:47;;;;;;;1.27;0.30;;;17.90;74.50;;;;;;5446792;26;20041;-77
2024/04/10 12:22:13;;;;;;;0.65;0.30;;;17.90;74.20;;;;;;5481524;25;20512;-77
2024/04/10 12:24:39;;;;;;;0.10;0.10;;;17.80;74.40;;;;;;5452271;26;19994;-77
2024/04/10 12:27:04;;;;;;;0.25;0.20;;;17.80;74.30;;;;;;5475391;26;19998;-77
2024/04/10 12:29:30;;;;;;;0.50;0.22;;;17.80;74.40;;;;;;5469771;26;20063;-77
2024/04/10 12:31:56;;;;;;;0.20;0.20;;;17.80;74.40;;;;;;5475215;26;20013;-77
2024/04/10 12:34:22;;;;;;;0.25;0.20;;;17.90;74.40;;;;;;5474751;26;20013;-77
2024/04/10 12:39:33;;;;;;;0.38;0.28;;;17.90;74.60;;;;;;5471699;26;20084;-78
2024/04/10 12:41:58;;;;;;;0.43;0.35;;;17.90;74.20;;;;;;5471183;26;19998;-77
2024/04/10 12:44:24;;;;;;;0.40;0.40;;;17.90;74.70;;;;;;5472968;26;20746;-77
2024/04/10 12:46:55;;;;;;;0.50;0.32;;;17.90;74.70;;;;;;5472081;26;20567;-77